Time;durP1;ratioP1;P1;durP2;ratioP2;P2;SDS_P1;SDS_P2;PMS_P1;PMS_P2;Temp;Humidity;BMP_temperature;BMP_pressure;BME280_temperature;BME280_humidity;BME280_pressure;Samples;Min_cycle;Max_cycle;Signal;HPM_P1;HPM_P2
2021/01/26 00:02:22;;;;;;;18.70;9.65;;;;;;;0.39;76.63;99212.81;5038412;28;20036;-76
2021/01/26 00:04:47;;;;;;;19.38;10.25;;;;;;;-0.11;77.44;99155.09;5038188;28;20068;-76
2021/01/26 00:07:13;;;;;;;22.58;10.20;;;;;;;0.27;77.25;99218.47;5038261;28;20458;-77
2021/01/26 00:09:38;;;;;;;18.10;9.52;;;;;;;0.25;77.20;99220.31;5055993;28;20033;-77
2021/01/26 00:12:04;;;;;;;15.57;8.80;;;;;;;0.28;77.18;99215.78;5056120;28;20041;-76
2021/01/26 00:14:30;;;;;;;16.95;9.10;;;;;;;0.20;76.55;99196.03;5038127;28;20533;-76
2021/01/26 00:16:55;;;;;;;18.20;9.43;;;;;;;0.10;77.19;99192.84;5055372;28;20028;-74
2021/01/26 00:19:21;;;;;;;16.58;8.85;;;;;;;0.25;76.66;99210.66;5055615;28;20402;-74
2021/01/26 00:21:46;;;;;;;17.25;9.02;;;;;;;0.21;76.81;99202.97;5037482;28;20040;-74
2021/01/26 00:24:12;;;;;;;17.40;9.07;;;;;;;0.16;77.29;99208.34;5055722;28;20029;-75
2021/01/26 00:26:37;;;;;;;17.52;9.10;;;;;;;0.18;77.08;99213.56;5055767;28;20041;-74
2021/01/26 00:29:10;;;;;;;16.85;8.63;;;;;;;0.20;76.80;99212.59;5037464;28;20033;-75
2021/01/26 00:31:36;;;;;;;17.35;9.27;;;;;;;-0.08;76.78;99176.00;5021372;28;20402;-71
2021/01/26 00:34:03;;;;;;;17.60;8.75;;;;;;;0.01;77.88;99219.38;5037267;28;20041;-73
2021/01/26 00:36:28;;;;;;;15.63;8.57;;;;;;;-0.17;77.66;99176.28;5037605;28;20044;-71
2021/01/26 00:38:54;;;;;;;15.45;7.93;;;;;;;0.02;77.71;99218.47;5055126;28;20044;-72
2021/01/26 00:41:20;;;;;;;16.27;8.52;;;;;;;-0.18;76.99;99173.72;5055396;28;20044;-71
2021/01/26 00:43:45;;;;;;;17.48;8.55;;;;;;;-0.28;77.18;99161.84;5036186;28;20036;-71
2021/01/26 00:46:11;;;;;;;18.90;9.18;;;;;;;-0.23;77.26;99173.00;5055103;28;20029;-72
2021/01/26 00:48:36;;;;;;;16.80;8.57;;;;;;;-0.11;77.13;99202.28;5055035;28;20053;-71
2021/01/26 00:51:03;;;;;;;15.02;8.45;;;;;;;-0.24;77.76;99193.13;5036971;28;20048;-71
2021/01/26 00:53:28;;;;;;;18.65;8.50;;;;;;;-0.21;78.38;99227.09;5037490;28;20045;-72
2021/01/26 00:55:54;;;;;;;15.57;8.45;;;;;;;-0.34;78.13;99207.44;5037317;28;20037;-71
2021/01/26 00:58:19;;;;;;;15.27;8.23;;;;;;;-0.23;78.38;99221.03;5037244;28;20150;-74
2021/01/26 01:00:45;;;;;;;16.17;7.78;;;;;;;-0.08;77.43;99212.69;5036941;28;20028;-74
2021/01/26 01:03:10;;;;;;;16.60;8.38;;;;;;;-0.22;76.99;99185.22;5054986;28;20481;-74
2021/01/26 01:05:36;;;;;;;17.98;8.73;;;;;;;0.07;76.61;99226.19;5055082;28;20029;-73
2021/01/26 01:08:02;;;;;;;16.95;8.70;;;;;;;0.10;76.38;99221.69;5054600;28;20214;-74
2021/01/26 01:10:31;;;;;;;15.52;8.15;;;;;;;0.08;76.31;99214.78;5054541;28;20072;-74
2021/01/26 01:12:56;;;;;;;16.60;8.07;;;;;;;-0.01;76.66;99214.16;5054419;28;20061;-74
2021/01/26 01:15:23;;;;;;;14.85;7.63;;;;;;;-0.22;76.30;99196.53;5054766;28;20118;-74
2021/01/26 01:17:49;;;;;;;15.27;8.10;;;;;;;-0.13;76.96;99230.31;5054115;28;20061;-74
2021/01/26 01:20:17;;;;;;;15.98;8.68;;;;;;;0.06;76.71;99240.19;5054831;28;20122;-73
2021/01/26 01:22:42;;;;;;;16.45;8.27;;;;;;;-0.14;76.82;99228.59;5054265;28;20083;-74
2021/01/26 01:25:08;;;;;;;16.23;8.00;;;;;;;-0.18;77.07;99234.88;5036345;28;20040;-74
2021/01/26 01:27:34;;;;;;;15.93;8.43;;;;;;;-0.30;77.18;99222.16;5054549;28;20124;-74
2021/01/26 01:29:59;;;;;;;17.00;8.00;;;;;;;-0.39;77.61;99217.19;5036288;28;20111;-74
2021/01/26 01:32:25;;;;;;;12.93;7.50;;;;;;;-0.38;77.71;99226.81;5036527;28;20079;-77
2021/01/26 01:34:50;;;;;;;14.63;7.78;;;;;;;-0.68;77.96;99190.16;5054385;28;20072;-78
2021/01/26 01:37:16;;;;;;;15.07;7.07;;;;;;;-0.43;78.30;99236.56;5020505;28;20428;-79
2021/01/26 01:39:41;;;;;;;14.02;7.55;;;;;;;-0.14;76.71;99253.97;5054398;28;20033;-78
2021/01/26 01:42:08;;;;;;;14.98;7.55;;;;;;;-0.11;76.65;99249.47;5053921;28;20102;-77
2021/01/26 01:44:35;;;;;;;14.63;7.60;;;;;;;0.09;75.54;99250.56;5054038;28;20079;-74
2021/01/26 01:47:04;;;;;;;13.73;7.28;;;;;;;0.06;74.92;99259.41;5053614;28;20061;-74
2021/01/26 01:49:36;;;;;;;16.50;7.63;;;;;;;0.04;75.59;99261.22;5054270;28;20033;-74
2021/01/26 01:52:01;;;;;;;13.73;6.97;;;;;;;0.07;74.85;99242.75;5053873;28;20029;-75
2021/01/26 01:54:35;;;;;;;13.73;7.82;;;;;;;0.06;75.13;99255.94;5035897;28;20048;-75
2021/01/26 01:57:20;;;;;;;16.27;7.85;;;;;;;0.00;76.68;99272.75;5035700;28;20035;-75
2021/01/26 01:59:50;;;;;;;15.48;7.72;;;;;;;-0.04;77.02;99261.47;5054033;28;20029;-76
2021/01/26 02:02:17;;;;;;;14.38;7.47;;;;;;;-0.09;76.56;99259.94;5053854;28;20485;-76
2021/01/26 02:04:43;;;;;;;13.85;7.28;;;;;;;0.12;76.08;99281.97;5053763;28;20029;-76
2021/01/26 02:07:10;;;;;;;14.48;7.70;;;;;;;0.20;76.06;99282.56;5035665;28;20114;-77
2021/01/26 02:09:38;;;;;;;13.73;7.30;;;;;;;0.30;75.00;99286.59;5036153;28;20100;-74
2021/01/26 02:12:05;;;;;;;16.20;7.70;;;;;;;0.38;74.32;99291.56;5035516;28;20438;-75
2021/01/26 02:14:34;;;;;;;13.23;7.22;;;;;;;0.49;73.18;99271.94;5035605;28;20033;-75
2021/01/26 02:17:24;;;;;;;16.33;7.47;;;;;;;0.65;72.74;99295.00;5053648;28;20033;-76
2021/01/26 02:20:24;;;;;;;12.30;6.70;;;;;;;0.61;72.72;99288.16;5053239;28;20041;-77
2021/01/26 02:23:07;;;;;;;15.77;7.20;;;;;;;0.71;71.89;99303.53;5035316;28;20024;-75
2021/01/26 02:25:33;;;;;;;13.20;6.70;;;;;;;0.78;70.92;99307.66;5053417;28;20029;-73
2021/01/26 02:28:13;;;;;;;14.52;7.00;;;;;;;0.75;71.43;99301.63;5052986;28;20500;-73
2021/01/26 02:31:21;;;;;;;13.25;7.22;;;;;;;0.66;72.68;99300.19;5053493;28;20033;-76
2021/01/26 02:34:05;;;;;;;13.93;7.45;;;;;;;0.65;72.41;99308.97;5052237;28;20116;-75
2021/01/26 02:37:08;;;;;;;15.20;7.10;;;;;;;0.62;72.06;99308.25;5053168;28;20108;-74
2021/01/26 02:40:06;;;;;;;16.48;7.55;;;;;;;0.57;72.71;99306.59;4953010;29;20117;-73
2021/01/26 02:42:50;;;;;;;15.35;8.15;;;;;;;0.47;72.83;99320.09;5052985;28;20045;-72
2021/01/26 02:45:27;;;;;;;;;;;;;;;0.35;73.71;99321.38;5053716;28;20041;-73
2021/01/26 02:48:21;;;;;;;14.88;7.65;;;;;;;0.20;74.17;99308.78;5053176;28;19917;-74
2021/01/26 02:50:56;;;;;;;17.23;8.00;;;;;;;-0.06;74.92;99293.91;5053115;28;20032;-73
2021/01/26 02:53:34;;;;;;;16.85;8.50;;;;;;;0.01;75.18;99313.78;5052963;28;20029;-73
2021/01/26 02:56:19;;;;;;;16.55;7.95;;;;;;;-0.08;75.16;99314.06;5053045;28;20112;-73
2021/01/26 02:58:53;;;;;;;14.90;7.90;;;;;;;-0.18;74.91;99302.16;5053022;28;20044;-74
2021/01/26 03:01:20;;;;;;;15.07;7.65;;;;;;;0.07;74.60;99336.31;5052847;28;20036;-74
2021/01/26 03:03:55;;;;;;;15.68;8.10;;;;;;;0.08;74.82;99332.78;5052987;28;20060;-72
2021/01/26 03:06:25;;;;;;;15.77;8.23;;;;;;;0.06;74.87;99337.22;5034349;28;20071;-72
2021/01/26 03:09:15;;;;;;;14.60;7.72;;;;;;;-0.08;75.07;99335.91;5052298;28;20072;-77
2021/01/26 03:11:55;;;;;;;16.08;7.55;;;;;;;-0.06;75.03;99341.09;5034816;28;20132;-73
2021/01/26 03:14:26;;;;;;;16.30;7.93;;;;;;;-0.08;74.87;99333.28;5052715;28;20371;-73
2021/01/26 03:17:03;;;;;;;16.92;7.97;;;;;;;-0.13;75.23;99357.91;5052549;28;20363;-73
2021/01/26 03:19:32;;;;;;;15.38;7.32;;;;;;;-0.15;75.36;99363.19;5052633;28;20529;-75
2021/01/26 03:21:59;;;;;;;15.80;8.18;;;;;;;-0.10;74.87;99357.81;5052396;28;20105;-76
2021/01/26 03:24:30;;;;;;;14.85;7.70;;;;;;;-0.19;75.13;99364.22;5052528;28;20071;-75
2021/01/26 03:26:55;;;;;;;15.95;7.97;;;;;;;-0.23;75.09;99369.56;5034537;28;20055;-76
2021/01/26 03:29:28;;;;;;;14.32;7.75;;;;;;;-0.27;75.38;99368.81;5034844;28;20029;-77
2021/01/26 03:31:56;;;;;;;15.17;7.70;;;;;;;-0.31;75.74;99378.53;5052846;28;20448;-74
2021/01/26 03:34:23;;;;;;;16.88;8.02;;;;;;;-0.34;75.85;99375.16;5052763;28;20377;-73
2021/01/26 03:36:49;;;;;;;17.08;7.78;;;;;;;-0.45;76.32;99372.00;5034672;28;20045;-74
2021/01/26 03:39:15;;;;;;;13.70;7.47;;;;;;;-0.33;76.21;99385.56;5034524;28;20029;-75
2021/01/26 03:41:41;;;;;;;16.20;8.20;;;;;;;-0.47;76.10;99376.44;5049182;28;20098;-75
2021/01/26 03:44:10;;;;;;;17.23;8.25;;;;;;;-0.52;76.73;99383.53;5072344;28;20075;-73
2021/01/26 03:46:47;;;;;;;15.95;7.93;;;;;;;-0.42;76.76;99392.84;5072543;28;20032;-76
2021/01/26 03:49:30;;;;;;;17.45;8.65;;;;;;;-0.40;76.32;99398.91;5072091;28;20028;-77
2021/01/26 03:52:36;;;;;;;14.02;7.25;;;;;;;-0.33;76.01;99409.16;5072312;28;20032;-74
2021/01/26 03:55:24;;;;;;;16.25;7.20;;;;;;;-0.27;75.47;99409.91;5072170;28;20028;-75
2021/01/26 03:58:03;;;;;;;15.15;7.82;;;;;;;-0.23;74.45;99399.25;5072524;28;20024;-73
2021/01/26 04:00:50;;;;;;;15.98;7.20;;;;;;;-0.08;73.65;99398.81;5072444;28;20039;-75
2021/01/26 04:03:21;;;;;;;15.85;7.20;;;;;;;-0.11;73.58;99409.38;5070829;28;20029;-76
2021/01/26 04:05:55;;;;;;;13.52;6.78;;;;;;;-0.14;73.62;99406.84;5072301;28;20028;-73
2021/01/26 04:08:30;;;;;;;13.38;7.20;;;;;;;-0.26;74.11;99407.22;5072146;28;20477;-76
2021/01/26 04:11:09;;;;;;;15.07;7.60;;;;;;;-0.23;73.42;99409.75;5071699;28;20059;-75
2021/01/26 04:14:02;;;;;;;14.18;7.30;;;;;;;-0.31;74.32;99420.44;5071183;28;20481;-74
2021/01/26 04:17:05;;;;;;;14.27;7.43;;;;;;;-0.29;74.60;99417.78;5072364;28;20032;-75
2021/01/26 04:19:34;;;;;;;15.10;6.95;;;;;;;-0.38;74.05;99397.97;5057688;28;20106;-74
2021/01/26 04:22:01;;;;;;;13.88;7.00;;;;;;;-0.37;73.00;99372.63;5075592;28;20112;-74
2021/01/26 04:24:34;;;;;;;15.07;7.65;;;;;;;-0.20;73.31;99416.66;5074497;28;20040;-73
2021/01/26 04:27:03;;;;;;;13.85;7.35;;;;;;;-0.48;73.89;99395.63;5074086;28;20032;-73
2021/01/26 04:29:28;;;;;;;18.00;7.32;;;;;;;-0.34;74.52;99433.66;5075523;28;20032;-72
2021/01/26 04:31:54;;;;;;;13.32;6.90;;;;;;;-0.50;74.76;99424.50;5074432;28;20025;-73
2021/01/26 04:34:20;;;;;;;15.20;7.53;;;;;;;-0.48;75.24;99450.66;5074172;28;20040;-72
2021/01/26 04:36:45;;;;;;;17.20;7.32;;;;;;;-0.66;74.73;99412.75;5074314;28;20036;-71
2021/01/26 04:39:11;;;;;;;13.30;6.85;;;;;;;-0.43;74.77;99447.00;5073867;28;20044;-73
2021/01/26 04:41:48;;;;;;;14.45;7.25;;;;;;;-0.44;73.81;99431.34;5073928;28;20132;-72
2021/01/26 04:44:43;;;;;;;15.68;7.32;;;;;;;-0.38;74.35;99450.38;5073654;28;20035;-72
2021/01/26 04:47:51;;;;;;;14.85;8.18;;;;;;;-0.37;74.21;99453.84;5075112;28;20024;-72
2021/01/26 04:50:45;;;;;;;17.13;7.38;;;;;;;-0.43;74.30;99454.03;4993384;28;20038;-72
2021/01/26 04:53:19;;;;;;;15.73;7.25;;;;;;;-0.41;73.92;99455.69;5075284;28;20429;-73
2021/01/26 04:55:55;;;;;;;15.60;6.88;;;;;;;-0.41;73.65;99455.69;5075191;28;20020;-72
2021/01/26 04:58:49;;;;;;;14.15;7.13;;;;;;;-0.40;73.84;99461.78;5074771;28;20031;-72
2021/01/26 05:01:39;;;;;;;16.60;7.53;;;;;;;-0.36;73.89;99471.28;5074554;28;20029;-70
2021/01/26 05:04:12;;;;;;;17.75;8.05;;;;;;;-0.70;74.02;99443.41;5074616;28;20032;-73
2021/01/26 05:06:56;;;;;;;15.32;7.68;;;;;;;-0.63;75.43;99494.72;5073584;28;20114;-73
2021/01/26 05:09:27;;;;;;;15.35;7.75;;;;;;;-0.63;75.02;99496.47;5074560;28;20028;-73
2021/01/26 05:11:55;;;;;;;15.02;7.35;;;;;;;-0.50;74.23;99507.47;5074695;28;20043;-77
2021/01/26 05:14:26;;;;;;;14.77;7.22;;;;;;;-0.50;73.87;99502.25;5073383;28;20041;-77
2021/01/26 05:16:58;;;;;;;15.50;7.65;;;;;;;-0.75;74.12;99471.47;5074931;28;20125;-77
2021/01/26 05:20:02;;;;;;;15.15;8.20;;;;;;;-0.54;74.13;99514.56;5074392;28;20020;-74
2021/01/26 05:22:38;;;;;;;16.38;7.97;;;;;;;-0.54;74.47;99516.34;5074739;28;20028;-73
2021/01/26 05:25:10;;;;;;;16.05;7.63;;;;;;;-0.60;74.69;99515.59;5074113;28;20042;-72
2021/01/26 05:27:37;;;;;;;16.97;7.93;;;;;;;-0.52;74.58;99530.25;5073589;28;20469;-73
2021/01/26 05:30:06;;;;;;;18.88;9.15;;;;;;;-0.65;75.57;99524.47;5073868;28;20032;-73
2021/01/26 05:32:32;;;;;;;16.42;8.50;;;;;;;-0.70;75.34;99511.50;5073066;28;20118;-72
2021/01/26 05:34:57;;;;;;;15.77;8.63;;;;;;;-0.91;75.83;99488.50;5073196;28;20076;-72
2021/01/26 05:37:24;;;;;;;18.40;8.55;;;;;;;-0.68;76.61;99535.88;5074348;28;20028;-74
2021/01/26 05:39:55;;;;;;;18.65;9.25;;;;;;;-0.74;76.77;99522.97;5073040;28;20047;-72
2021/01/26 05:42:23;;;;;;;17.33;8.73;;;;;;;-0.71;77.03;99543.81;5059053;28;20084;-75
2021/01/26 05:44:58;;;;;;;20.75;9.75;;;;;;;-0.96;77.66;99511.31;5036312;28;20079;-77
2021/01/26 05:47:26;;;;;;;16.92;8.77;;;;;;;-0.74;77.67;99557.00;5053880;28;20104;-75
2021/01/26 05:49:52;;;;;;;23.35;10.05;;;;;;;-0.80;77.76;99544.06;5036092;28;20171;-76
2021/01/26 05:52:19;;;;;;;18.55;9.23;;;;;;;-0.79;77.53;99548.38;5053571;28;20120;-74
2021/01/26 05:54:52;;;;;;;19.92;9.20;;;;;;;-0.82;77.59;99543.25;5036215;28;20036;-73
2021/01/26 05:57:34;;;;;;;19.55;9.13;;;;;;;-0.92;77.96;99534.75;5053453;28;20111;-77
2021/01/26 06:00:28;;;;;;;21.23;10.32;;;;;;;-0.84;78.04;99559.91;5036058;28;20159;-76
2021/01/26 06:03:18;;;;;;;20.50;9.75;;;;;;;-0.80;78.38;99562.38;5053759;28;20120;-73
2021/01/26 06:06:05;;;;;;;25.33;11.00;;;;;;;-0.79;78.17;99561.47;5053561;28;20037;-71
2021/01/26 06:08:32;;;;;;;23.30;11.10;;;;;;;-0.81;78.90;99565.03;5053497;28;20035;-73
2021/01/26 06:10:59;;;;;;;22.88;10.75;;;;;;;-0.83;78.51;99572.09;5035922;28;20103;-75
2021/01/26 06:13:27;;;;;;;20.20;9.85;;;;;;;-0.92;78.57;99555.69;5035276;28;20900;-75
2021/01/26 06:16:13;;;;;;;20.02;10.13;;;;;;;-1.18;78.36;99518.81;5053313;28;20032;-74
2021/01/26 06:18:54;;;;;;;22.20;11.65;;;;;;;-1.07;78.66;99548.22;5053626;28;20029;-77
2021/01/26 06:21:19;;;;;;;22.90;11.23;;;;;;;-0.84;78.99;99592.19;5052989;28;20029;-74
2021/01/26 06:23:45;;;;;;;23.23;11.55;;;;;;;-1.16;78.31;99533.63;5053230;28;20527;-74
2021/01/26 06:26:12;;;;;;;21.80;11.30;;;;;;;-0.76;78.66;99599.84;5052751;28;20036;-73
2021/01/26 06:28:54;;;;;;;24.65;11.90;;;;;;;-0.70;78.42;99599.69;5035179;28;20048;-73
2021/01/26 06:31:28;;;;;;;23.33;10.57;;;;;;;-0.79;78.35;99594.66;5052935;28;20025;-72
2021/01/26 06:34:02;;;;;;;24.90;12.23;;;;;;;-0.66;78.29;99617.91;5053107;28;20029;-75
2021/01/26 06:36:45;;;;;;;24.45;11.52;;;;;;;-0.65;78.39;99614.41;5034990;28;20041;-70
2021/01/26 06:39:52;;;;;;;25.38;11.63;;;;;;;-0.63;78.42;99623.06;5052682;28;20028;-70
2021/01/26 06:42:42;;;;;;;27.63;13.30;;;;;;;-0.60;78.38;99625.59;5054832;28;20501;-70
2021/01/26 06:45:15;;;;;;;26.27;12.75;;;;;;;-0.57;78.40;99622.06;5072520;28;20111;-71
2021/01/26 06:48:10;;;;;;;24.00;12.20;;;;;;;-0.49;78.38;99634.94;5073051;28;20059;-69
2021/01/26 06:51:01;;;;;;;25.45;12.30;;;;;;;-0.58;78.19;99625.56;5035299;28;20041;-70
2021/01/26 06:53:47;;;;;;;24.15;12.48;;;;;;;-0.51;78.23;99636.75;5072787;28;20473;-71
2021/01/26 06:56:33;;;;;;;31.02;14.02;;;;;;;-0.56;78.32;99628.16;5072468;28;20032;-72
2021/01/26 06:59:27;;;;;;;25.75;12.35;;;;;;;-0.51;77.72;99621.91;5058755;28;20090;-77
2021/01/26 07:02:11;;;;;;;31.25;14.13;;;;;;;-0.32;77.68;99649.34;5073217;28;20073;-76
2021/01/26 07:04:43;;;;;;;24.90;11.80;;;;;;;-0.23;77.62;99653.50;5073181;28;20440;-77
2021/01/26 07:07:37;;;;;;;28.90;13.35;;;;;;;-0.27;77.53;99656.25;5072906;28;20035;-79
2021/01/26 07:10:14;;;;;;;26.23;12.23;;;;;;;-0.28;77.12;99649.28;5071737;28;20469;-78
2021/01/26 07:13:05;;;;;;;28.85;14.55;;;;;;;-0.18;76.90;99659.50;5073006;28;20546;-79
2021/01/26 07:15:37;;;;;;;28.70;13.48;;;;;;;-0.26;76.54;99647.50;5072695;28;20393;-76
2021/01/26 07:18:34;;;;;;;25.80;12.10;;;;;;;-0.04;76.20;99667.84;5072846;28;20473;-76
2021/01/26 07:21:25;;;;;;;28.15;12.93;;;;;;;-0.04;76.63;99667.84;5073166;28;20043;-76
2021/01/26 07:24:15;;;;;;;24.60;12.70;;;;;;;0.04;76.13;99666.78;5072925;28;20032;-72
2021/01/26 07:27:06;;;;;;;25.45;12.30;;;;;;;-0.02;76.01;99673.91;5072956;28;20036;-76
2021/01/26 07:29:45;;;;;;;28.20;13.95;;;;;;;0.05;76.09;99671.13;5071238;28;20469;-76
2021/01/26 07:32:22;;;;;;;26.40;12.65;;;;;;;0.14;75.90;99678.75;5072509;28;20028;-76
2021/01/26 07:35:25;;;;;;;25.98;13.13;;;;;;;0.16;75.24;99683.06;5072429;28;20052;-75
2021/01/26 07:38:03;;;;;;;27.75;13.93;;;;;;;0.17;75.70;99676.91;5041105;28;20036;-75
2021/01/26 07:40:33;;;;;;;26.50;12.13;;;;;;;0.15;75.51;99683.97;5072466;28;20049;-75
2021/01/26 07:43:18;;;;;;;31.13;14.15;;;;;;;0.22;75.34;99687.28;5052493;28;20077;-74
2021/01/26 07:45:49;;;;;;;24.33;12.40;;;;;;;0.23;75.09;99683.75;5052664;28;20031;-74
2021/01/26 07:48:23;;;;;;;29.80;14.00;;;;;;;0.27;75.40;99690.63;5034449;28;20466;-78
2021/01/26 07:50:51;;;;;;;27.13;13.60;;;;;;;0.23;75.40;99673.25;5035448;28;20025;-78
2021/01/26 07:53:29;;;;;;;23.50;11.88;;;;;;;0.46;74.66;99689.22;5054571;28;20150;-74
2021/01/26 07:56:19;;;;;;;25.48;12.45;;;;;;;0.51;74.21;99695.22;5056136;28;20078;-72
2021/01/26 07:58:47;;;;;;;32.42;15.07;;;;;;;0.34;74.97;99686.09;5056492;28;20029;-73
2021/01/26 08:01:16;;;;;;;26.77;13.02;;;;;;;0.23;73.98;99668.03;5055463;28;20178;-78
2021/01/26 08:03:43;;;;;;;26.80;13.10;;;;;;;0.30;74.15;99679.22;5055506;28;20033;-72
2021/01/26 08:06:40;;;;;;;24.95;12.77;;;;;;;0.37;74.33;99702.59;5038439;28;20093;-72
2021/01/26 08:09:14;;;;;;;27.30;13.30;;;;;;;0.42;73.84;99711.22;5056089;28;20029;-71
2021/01/26 08:11:57;;;;;;;30.73;13.63;;;;;;;0.47;73.65;99718.94;5055781;28;20037;-69
2021/01/26 08:14:32;;;;;;;29.47;12.87;;;;;;;0.48;73.58;99716.31;5037846;28;20393;-70
2021/01/26 08:17:01;;;;;;;26.58;12.43;;;;;;;0.51;73.22;99721.47;5038096;28;20269;-70
2021/01/26 08:19:33;;;;;;;25.20;11.75;;;;;;;0.40;72.97;99701.66;5056056;28;20025;-71
2021/01/26 08:22:12;;;;;;;28.83;12.70;;;;;;;0.33;72.98;99674.72;5055898;28;20028;-70
2021/01/26 08:24:39;;;;;;;28.15;12.98;;;;;;;0.48;73.00;99702.28;5055417;28;20059;-70
2021/01/26 08:27:29;;;;;;;25.20;12.20;;;;;;;0.68;72.04;99715.75;5055552;28;20139;-70
2021/01/26 08:30:00;;;;;;;25.38;11.40;;;;;;;0.75;71.60;99724.28;5055851;28;20039;-70
2021/01/26 08:32:25;;;;;;;28.23;13.00;;;;;;;0.81;71.74;99727.59;5054551;28;20052;-72
2021/01/26 08:35:01;;;;;;;32.45;14.25;;;;;;;0.75;72.59;99734.78;5055145;28;20033;-71
2021/01/26 08:37:42;;;;;;;24.90;11.65;;;;;;;0.53;73.51;99709.16;5055106;28;20401;-71
2021/01/26 08:40:20;;;;;;;32.30;14.45;;;;;;;0.62;73.92;99739.53;5055326;28;20040;-70
2021/01/26 08:42:48;;;;;;;26.83;12.55;;;;;;;0.55;74.56;99744.06;5055723;28;20068;-70
2021/01/26 08:45:26;;;;;;;30.00;14.57;;;;;;;0.67;73.53;99747.25;5055345;28;20035;-71
2021/01/26 08:48:01;;;;;;;32.33;14.73;;;;;;;0.77;73.91;99749.63;5055052;28;20029;-71
2021/01/26 08:50:31;;;;;;;33.88;13.98;;;;;;;0.89;73.45;99743.16;5037317;28;20048;-71
2021/01/26 08:53:26;;;;;;;30.35;14.68;;;;;;;1.03;72.19;99751.47;5055213;28;20044;-70
2021/01/26 08:55:55;;;;;;;27.10;12.98;;;;;;;0.92;72.32;99737.78;5043709;28;20123;-71
2021/01/26 08:58:45;;;;;;;26.83;13.07;;;;;;;1.04;71.53;99763.69;5055032;28;20029;-71
2021/01/26 09:01:37;;;;;;;24.80;12.05;;;;;;;1.18;71.15;99754.56;5055109;28;20028;-71
2021/01/26 09:04:12;;;;;;;25.17;12.15;;;;;;;1.19;70.26;99764.16;5036425;28;20029;-69
2021/01/26 09:06:43;;;;;;;26.80;12.10;;;;;;;1.21;71.03;99759.72;5054709;28;20036;-72
2021/01/26 09:09:17;;;;;;;32.50;13.10;;;;;;;1.25;71.28;99766.59;5055444;28;20028;-71
2021/01/26 09:11:55;;;;;;;26.45;12.95;;;;;;;1.31;70.47;99761.16;5055314;28;20044;-72
2021/01/26 09:14:42;;;;;;;24.63;12.07;;;;;;;1.47;69.54;99775.56;5054519;28;20033;-70
2021/01/26 09:17:22;;;;;;;30.10;12.55;;;;;;;1.58;68.93;99767.34;5054609;28;20036;-71
2021/01/26 09:19:52;;;;;;;27.48;12.65;;;;;;;1.59;68.51;99769.91;5036920;28;20029;-72
2021/01/26 09:22:26;;;;;;;23.13;11.65;;;;;;;1.68;67.85;99772.25;5054703;28;20040;-72
2021/01/26 09:25:12;;;;;;;18.10;9.02;;;;;;;1.66;66.76;99758.31;5054535;28;20112;-71
2021/01/26 09:27:38;;;;;;;23.05;10.48;;;;;;;1.81;66.49;99766.59;5054814;28;20458;-71
2021/01/26 09:30:15;;;;;;;20.95;10.30;;;;;;;1.93;66.00;99760.94;5054749;28;20033;-71
2021/01/26 09:32:44;;;;;;;21.48;10.40;;;;;;;2.09;65.22;99767.41;5036543;28;20036;-71
2021/01/26 09:35:13;;;;;;;21.17;9.75;;;;;;;2.08;64.27;99765.72;5054325;28;20480;-71
2021/01/26 09:37:38;;;;;;;14.98;8.05;;;;;;;2.13;61.48;99748.00;5053905;28;20493;-71
2021/01/26 09:40:10;;;;;;;21.85;9.63;;;;;;;2.24;62.28;99777.44;5054266;28;20041;-72
2021/01/26 09:42:35;;;;;;;16.88;8.32;;;;;;;2.19;61.00;99736.41;5054280;28;20045;-72
2021/01/26 09:45:06;;;;;;;22.58;8.50;;;;;;;2.57;60.46;99779.81;5054271;28;20055;-70
2021/01/26 09:47:33;;;;;;;13.00;6.63;;;;;;;2.59;58.73;99767.47;5053884;28;20079;-71
2021/01/26 09:50:09;;;;;;;13.27;6.60;;;;;;;2.15;62.96;99724.28;5054342;28;20439;-71
2021/01/26 09:52:36;;;;;;;20.95;10.50;;;;;;;2.47;63.27;99783.69;5053975;28;20041;-72
2021/01/26 09:55:13;;;;;;;23.08;9.63;;;;;;;2.54;62.88;99779.94;5054319;28;20131;-71
2021/01/26 09:57:40;;;;;;;18.70;10.18;;;;;;;2.40;62.66;99777.75;5053810;28;20025;-71
2021/01/26 10:00:21;;;;;;;24.63;9.35;;;;;;;2.14;63.74;99765.50;5054006;28;20060;-71
2021/01/26 10:02:51;;;;;;;19.15;9.55;;;;;;;1.85;64.51;99728.78;5036171;28;20408;-72
2021/01/26 10:05:18;;;;;;;20.60;10.32;;;;;;;2.26;63.55;99796.66;5020365;28;20041;-70
2021/01/26 10:07:43;;;;;;;21.50;9.98;;;;;;;2.23;64.83;99778.38;5053614;28;20102;-71
2021/01/26 10:10:12;;;;;;;21.88;10.55;;;;;;;2.38;64.86;99781.38;5035982;28;20041;-70
2021/01/26 10:12:40;;;;;;;15.77;7.03;;;;;;;2.40;63.87;99793.56;5053319;28;20032;-71
2021/01/26 10:15:24;;;;;;;20.52;9.57;;;;;;;2.37;63.91;99784.91;5053591;28;20117;-71
2021/01/26 10:17:49;;;;;;;;;;;;;;;2.42;63.57;99781.22;5054279;28;20425;-70
2021/01/26 10:20:27;;;;;;;20.23;9.73;;;;;;;2.35;63.55;99756.03;5035814;28;19908;-71
2021/01/26 10:23:09;;;;;;;20.08;10.25;;;;;;;2.43;63.94;99771.56;5053666;28;20032;-71
2021/01/26 10:25:36;;;;;;;19.48;10.40;;;;;;;2.42;63.85;99777.75;5053347;28;20029;-71
2021/01/26 10:28:11;;;;;;;20.48;8.63;;;;;;;2.34;63.43;99756.09;5053258;28;20033;-72
2021/01/26 10:30:45;;;;;;;20.60;9.18;;;;;;;2.24;62.75;99727.44;5053168;28;20033;-72
2021/01/26 10:33:31;;;;;;;19.70;7.75;;;;;;;2.49;62.28;99760.78;5053360;28;20025;-71
2021/01/26 10:36:18;;;;;;;16.83;8.63;;;;;;;2.56;61.99;99778.09;5053287;28;20436;-72
2021/01/26 10:38:45;;;;;;;15.82;8.13;;;;;;;2.38;61.96;99768.22;5053112;28;20033;-72
2021/01/26 10:41:32;;;;;;;15.68;6.60;;;;;;;2.52;61.81;99771.25;5053244;28;20060;-70
2021/01/26 10:44:07;;;;;;;15.15;8.00;;;;;;;2.51;61.59;99774.75;5052425;28;20076;-71
2021/01/26 10:46:40;;;;;;;18.40;8.35;;;;;;;2.49;61.64;99755.53;5052822;28;20044;-70
2021/01/26 10:49:15;;;;;;;19.30;7.72;;;;;;;2.36;61.47;99739.31;5053499;28;20025;-70
2021/01/26 10:51:42;;;;;;;16.65;7.45;;;;;;;2.59;60.94;99783.25;5053040;28;20044;-71
2021/01/26 10:54:09;;;;;;;16.67;8.48;;;;;;;2.48;61.97;99769.59;5053211;28;20071;-70
2021/01/26 10:56:34;;;;;;;16.83;8.38;;;;;;;2.54;61.67;99779.94;5034844;28;20044;-72
2021/01/26 10:59:00;;;;;;;17.15;8.48;;;;;;;2.57;61.33;99766.66;5052939;28;20033;-71
2021/01/26 11:01:26;;;;;;;14.25;7.95;;;;;;;2.74;59.98;99780.09;5052703;28;20420;-72
2021/01/26 11:03:53;;;;;;;16.30;7.28;;;;;;;2.60;59.25;99748.09;5053137;28;20430;-70
2021/01/26 11:06:19;;;;;;;13.55;5.97;;;;;;;2.90;60.26;99779.56;5053418;28;20039;-71
2021/01/26 11:08:47;;;;;;;17.30;8.20;;;;;;;3.01;59.68;99790.56;5035393;28;20033;-70
2021/01/26 11:11:15;;;;;;;15.90;7.10;;;;;;;2.91;60.81;99765.47;5034981;28;20068;-70
2021/01/26 11:13:40;;;;;;;13.52;6.18;;;;;;;2.98;60.77;99761.66;5052597;28;20087;-71
2021/01/26 11:16:06;;;;;;;17.50;8.43;;;;;;;3.21;60.26;99809.13;5035372;28;20037;-71
2021/01/26 11:18:31;;;;;;;15.40;6.47;;;;;;;2.93;59.67;99755.72;5018101;28;20033;-70
2021/01/26 11:20:59;;;;;;;11.80;4.70;;;;;;;2.86;60.51;99784.06;5018937;28;20033;-70
2021/01/26 11:23:25;;;;;;;18.48;7.45;;;;;;;2.72;59.88;99742.41;5052794;28;20025;-70
2021/01/26 11:25:51;;;;;;;16.65;8.38;;;;;;;2.65;60.79;99738.28;5018405;28;20029;-70
2021/01/26 11:28:17;;;;;;;15.25;6.90;;;;;;;2.98;61.36;99777.47;5055344;28;20251;-72
2021/01/26 11:30:43;;;;;;;20.70;9.07;;;;;;;2.76;61.75;99759.81;5038924;28;20033;-71
2021/01/26 11:33:08;;;;;;;18.40;9.52;;;;;;;2.90;62.16;99776.91;5057086;28;20483;-71
2021/01/26 11:35:34;;;;;;;16.88;8.02;;;;;;;2.65;62.03;99724.25;5038674;28;20041;-72
2021/01/26 11:38:00;;;;;;;19.95;8.90;;;;;;;2.93;61.53;99776.81;5038972;28;20116;-71
2021/01/26 11:40:27;;;;;;;20.98;8.98;;;;;;;2.88;62.18;99764.63;5056741;28;20045;-71
2021/01/26 11:42:52;;;;;;;15.43;7.28;;;;;;;2.69;61.71;99721.44;5056062;28;20059;-72
2021/01/26 11:45:38;;;;;;;14.32;7.40;;;;;;;2.79;62.16;99758.84;5056678;28;20045;-70
2021/01/26 11:48:07;;;;;;;10.57;4.95;;;;;;;2.71;61.88;99774.94;5056695;28;20032;-70
2021/01/26 11:50:33;;;;;;;19.38;8.73;;;;;;;2.48;62.41;99736.25;5056040;28;20043;-72
2021/01/26 11:52:58;;;;;;;17.90;8.88;;;;;;;2.70;61.45;99760.06;5056059;28;20072;-72
2021/01/26 11:55:27;;;;;;;15.88;8.20;;;;;;;2.76;61.43;99785.31;5056174;28;20033;-72
2021/01/26 11:57:53;;;;;;;20.50;9.20;;;;;;;2.48;61.39;99746.78;5055906;28;20478;-70
2021/01/26 12:00:22;;;;;;;16.52;8.43;;;;;;;2.70;62.14;99778.50;5056404;28;20040;-70